Malott, Washington
Current Conditions -  °F | °C
As of 7:53 AM on Friday 24 Oct 2014 (Local Time) from KOMK Reporting Station
Clear Clear  
Wind Chill: 32°   Ceiling: Unl
Heat Index: 37°   Visibility: 10mi
Dew Point: 33°   Wind: 7mph
Humidity: 86%   Direction: 290°WNW
Pressure: 30.07"   Gusts: NA
Location:  48.28°N, 119.71°W
Report Text: KOMK 241453Z AUTO 29006KT 10SM CLR 03/01 A3007 RMK AO2 SLP190 T00280006 51018
Loading
Personal Weather Stations






























Interactive Weather Map
Tropical Storm Tracking
New forecast layout! Learn more

10-Day Weather Forecast

Advertisements
Track Severe Weather on mobile